Terminal Aerodrome Forecast
Issued by NWS

Home | Current Version | Previous Version | Text Only | Print | Product List | Glossary On
Versions: 1 2 3 4 5 6 7 8 9 10 11 12 13 14 15 16 17 18 19 20 21 22
948
FTUS43 KABR 050734 AAA
TAFMBG
TAF AMD
KMBG 050734Z 0508/0606 15012KT P6SM BKN090
     FM051200 28008KT P6SM VCSH BKN060
     FM051400 30014KT 3SM -SN OVC030
     FM051900 31022G32KT P6SM BKN025=

USA.gov is the U.S. government's official web portal to all federal, state and local government web resources and services.